Time;durP1;ratioP1;P1;durP2;ratioP2;P2;SDS_P1;SDS_P2;PMS_P1;PMS_P2;Temp;Humidity;BMP_temperature;BMP_pressure;BME280_temperature;BME280_humidity;BME280_pressure;Samples;Min_cycle;Max_cycle;Signal;HPM_P1;HPM_P2
2022/10/05 00:01:53;;;;;;;0.30;0.13;;;;;;;;;;4164725;28;20057;-38
2022/10/05 00:04:14;;;;;;;0.15;0.15;;;;;;;;;;4163665;28;20119;-38
2022/10/05 00:06:15;;;;;;;0.25;0.20;;;;;;;;;;4149207;28;20120;-38
2022/10/05 00:08:17;;;;;;;0.10;0.10;;;;;;;;;;4164656;28;20634;-38
2022/10/05 00:10:23;;;;;;;0.63;0.20;;;;;;;;;;4164264;28;20045;-38
2022/10/05 00:12:26;;;;;;;0.20;0.10;;;;;;;;;;4164098;28;20057;-37
2022/10/05 00:14:30;;;;;;;0.25;0.10;;;;;;;;;;4162943;28;20057;-38
2022/10/05 00:16:31;;;;;;;0.47;0.10;;;;;;;;;;4163788;28;20488;-38
2022/10/05 00:18:32;;;;;;;0.20;0.10;;;;;;;;;;4163156;28;20057;-40
2022/10/05 00:20:33;;;;;;;0.45;0.25;;;;;;;;;;4163588;28;20045;-37
2022/10/05 00:22:34;;;;;;;0.68;0.20;;;;;;;;;;4158918;28;20142;-38
2022/10/05 00:24:36;;;;;;;0.10;0.10;;;;;;;;;;4163033;28;20099;-38
2022/10/05 00:26:37;;;;;;;0.10;0.05;;;;;;;;;;4164807;28;20050;-37
2022/10/05 00:28:40;;;;;;;0.40;0.30;;;;;;;;;;4163257;28;20060;-37
2022/10/05 00:30:42;;;;;;;0.30;0.10;;;;;;;;;;4163280;28;20516;-38
2022/10/05 00:32:44;;;;;;;0.28;0.20;;;;;;;;;;4164510;28;20057;-37
2022/10/05 00:34:45;;;;;;;0.43;0.15;;;;;;;;;;4150840;28;20420;-38
2022/10/05 00:36:47;;;;;;;0.82;0.20;;;;;;;;;;4164683;28;20053;-38
2022/10/05 00:38:48;;;;;;;0.38;0.10;;;;;;;;;;4164802;28;20061;-38
2022/10/05 00:40:58;;;;;;;0.20;0.10;;;;;;;;;;4164554;28;20092;-37
2022/10/05 00:43:31;;;;;;;0.38;0.10;;;;;;;;;;4155155;28;20126;-38
2022/10/05 00:45:36;;;;;;;0.60;0.30;;;;;;;;;;4146695;28;20058;-38
2022/10/05 00:48:04;;;;;;;0.40;0.25;;;;;;;;;;4146743;28;20061;-37
2022/10/05 00:50:34;;;;;;;0.52;0.20;;;;;;;;;;4164264;28;20065;-38
2022/10/05 00:53:18;;;;;;;0.40;0.30;;;;;;;;;;4151846;28;20099;-38
2022/10/05 00:55:25;;;;;;;0.35;0.30;;;;;;;;;;4164075;28;20053;-38
2022/10/05 00:57:36;;;;;;;0.20;0.20;;;;;;;;;;4163041;28;20061;-38
2022/10/05 00:59:41;;;;;;;;;;;;;;;;;;4163264;28;20057;-38
2022/10/05 01:01:56;;;;;;;0.20;0.20;;;;;;;;;;4162695;28;19974;-38
2022/10/05 01:04:13;;;;;;;0.20;0.10;;;;;;;;;;4162274;28;20057;-46
2022/10/05 01:06:48;;;;;;;0.65;0.20;;;;;;;;;;4164015;28;20123;-38
2022/10/05 01:09:30;;;;;;;0.10;0.10;;;;;;;;;;4146484;28;20107;-37
2022/10/05 01:12:08;;;;;;;0.10;0.10;;;;;;;;;;4155064;28;20500;-38
2022/10/05 01:14:23;;;;;;;0.30;0.20;;;;;;;;;;4149096;28;20053;-37
2022/10/05 01:16:48;;;;;;;0.60;0.20;;;;;;;;;;4163750;28;20115;-37
2022/10/05 01:19:20;;;;;;;0.20;0.17;;;;;;;;;;4162189;28;20057;-38
2022/10/05 01:21:23;;;;;;;0.10;0.10;;;;;;;;;;4155353;28;20061;-38
2022/10/05 01:23:33;;;;;;;0.43;0.30;;;;;;;;;;4157482;28;20545;-38
2022/10/05 01:25:37;;;;;;;;;;;;;;;;;;4164276;28;20388;-37
2022/10/05 01:27:54;;;;;;;0.30;0.10;;;;;;;;;;4162398;28;19925;-38
2022/10/05 01:30:02;;;;;;;0.30;0.20;;;;;;;;;;4162620;28;20189;-38
2022/10/05 01:32:25;;;;;;;0.40;0.20;;;;;;;;;;4163360;28;20527;-38
2022/10/05 01:35:11;;;;;;;0.30;0.10;;;;;;;;;;4157001;28;20072;-38
2022/10/05 01:37:34;;;;;;;0.20;0.10;;;;;;;;;;4139939;28;20144;-38
2022/10/05 01:39:46;;;;;;;0.30;0.10;;;;;;;;;;4162243;28;20073;-37
2022/10/05 01:42:12;;;;;;;0.20;0.10;;;;;;;;;;4163404;28;20119;-37
2022/10/05 01:44:26;;;;;;;0.20;0.20;;;;;;;;;;4163425;28;20476;-37
2022/10/05 01:46:35;;;;;;;0.10;0.10;;;;;;;;;;4146085;28;20113;-38
2022/10/05 01:48:59;;;;;;;0.43;0.20;;;;;;;;;;4161424;28;20049;-38
2022/10/05 01:51:31;;;;;;;0.32;0.20;;;;;;;;;;4162251;28;20116;-38
2022/10/05 01:54:12;;;;;;;0.10;0.10;;;;;;;;;;4151101;28;20076;-37
2022/10/05 01:56:35;;;;;;;0.30;0.22;;;;;;;;;;4158436;28;20107;-38
2022/10/05 01:58:40;;;;;;;0.20;0.20;;;;;;;;;;4142189;28;20133;-39
2022/10/05 02:01:29;;;;;;;0.22;0.20;;;;;;;;;;4144431;28;20191;-37
2022/10/05 02:03:44;;;;;;;0.40;0.20;;;;;;;;;;4143198;28;20050;-39
2022/10/05 02:05:55;;;;;;;0.45;0.30;;;;;;;;;;4127115;28;20104;-38
2022/10/05 02:07:59;;;;;;;0.43;0.20;;;;;;;;;;4113608;28;20110;-38
2022/10/05 02:10:30;;;;;;;0.22;0.10;;;;;;;;;;4147511;28;20054;-38
2022/10/05 02:12:34;;;;;;;0.65;0.20;;;;;;;;;;4148207;28;20501;-38
2022/10/05 02:14:40;;;;;;;0.17;0.15;;;;;;;;;;4144830;28;20064;-38
2022/10/05 02:16:43;;;;;;;0.55;0.10;;;;;;;;;;4145668;28;20058;-38
2022/10/05 02:19:10;;;;;;;0.32;0.20;;;;;;;;;;4145127;28;20419;-37
2022/10/05 02:21:13;;;;;;;0.10;0.10;;;;;;;;;;4156122;28;20068;-38
2022/10/05 02:23:20;;;;;;;0.30;0.10;;;;;;;;;;4135481;28;20058;-37
2022/10/05 02:25:26;;;;;;;0.43;0.20;;;;;;;;;;4153038;28;20076;-38
2022/10/05 02:27:32;;;;;;;0.52;0.10;;;;;;;;;;4147857;28;20054;-38
2022/10/05 02:29:36;;;;;;;0.52;0.20;;;;;;;;;;4150327;28;20050;-38
2022/10/05 02:31:48;;;;;;;0.10;0.10;;;;;;;;;;4150814;28;20449;-37
2022/10/05 02:33:49;;;;;;;0.82;0.10;;;;;;;;;;4166779;28;20151;-38
2022/10/05 02:35:53;;;;;;;0.10;0.10;;;;;;;;;;4151048;28;20054;-37
2022/10/05 02:38:09;;;;;;;0.50;0.20;;;;;;;;;;4150537;28;20116;-38
2022/10/05 02:40:27;;;;;;;0.20;0.20;;;;;;;;;;4168530;28;20053;-37
2022/10/05 02:42:35;;;;;;;0.28;0.10;;;;;;;;;;4150865;28;20089;-38
2022/10/05 02:44:54;;;;;;;0.40;0.22;;;;;;;;;;4154533;28;20144;-38
2022/10/05 02:47:05;;;;;;;;;;;;;;;;;;4167676;28;20053;-38
2022/10/05 02:49:25;;;;;;;0.10;0.10;;;;;;;;;;4166598;28;19921;-38
2022/10/05 02:51:33;;;;;;;0.38;0.20;;;;;;;;;;4168286;28;20092;-38
2022/10/05 02:53:52;;;;;;;0.15;0.10;;;;;;;;;;4167194;28;20107;-37
2022/10/05 02:55:59;;;;;;;0.43;0.20;;;;;;;;;;4167075;28;20049;-37
2022/10/05 02:58:11;;;;;;;0.30;0.20;;;;;;;;;;4134559;28;20061;-38
2022/10/05 03:00:18;;;;;;;0.40;0.15;;;;;;;;;;4145152;28;20325;-38
2022/10/05 03:02:25;;;;;;;0.28;0.13;;;;;;;;;;4148963;28;20065;-38
2022/10/05 03:04:48;;;;;;;0.20;0.20;;;;;;;;;;4166335;28;20128;-38
2022/10/05 03:07:01;;;;;;;0.90;0.10;;;;;;;;;;4166745;28;20191;-37
2022/10/05 03:09:04;;;;;;;0.38;0.20;;;;;;;;;;4166270;28;20061;-38
2022/10/05 03:11:21;;;;;;;0.10;0.10;;;;;;;;;;4167015;28;20060;-38
2022/10/05 03:14:09;;;;;;;0.98;0.40;;;;;;;;;;4164547;28;20080;-37
2022/10/05 03:16:31;;;;;;;0.40;0.25;;;;;;;;;;4157891;28;20452;-38
2022/10/05 03:18:51;;;;;;;0.65;0.15;;;;;;;;;;4167982;28;20417;-39
2022/10/05 03:21:20;;;;;;;0.32;0.20;;;;;;;;;;4163317;28;20045;-38
2022/10/05 03:23:24;;;;;;;0.10;0.10;;;;;;;;;;4178937;28;20079;-38
2022/10/05 03:25:35;;;;;;;0.10;0.10;;;;;;;;;;4165611;28;20123;-38
2022/10/05 03:28:03;;;;;;;0.20;0.20;;;;;;;;;;4166817;28;20111;-38
2022/10/05 03:30:20;;;;;;;1.75;0.15;;;;;;;;;;4166792;28;20076;-38
2022/10/05 03:32:52;;;;;;;0.50;0.30;;;;;;;;;;4166785;28;20060;-38
2022/10/05 03:35:29;;;;;;;1.33;0.30;;;;;;;;;;4163577;28;20054;-37
2022/10/05 03:37:51;;;;;;;0.45;0.20;;;;;;;;;;4133560;28;20074;-37
2022/10/05 03:40:06;;;;;;;0.10;0.10;;;;;;;;;;4162760;28;20053;-38
2022/10/05 03:42:12;;;;;;;0.47;0.20;;;;;;;;;;4151979;28;20104;-37
2022/10/05 03:44:32;;;;;;;0.68;0.20;;;;;;;;;;4156896;28;20550;-37
2022/10/05 03:46:54;;;;;;;0.40;0.20;;;;;;;;;;4164058;28;20108;-38
2022/10/05 03:49:01;;;;;;;0.20;0.20;;;;;;;;;;4163633;28;20492;-38
2022/10/05 03:51:25;;;;;;;0.40;0.22;;;;;;;;;;4157923;28;20159;-38
2022/10/05 03:53:30;;;;;;;0.10;0.10;;;;;;;;;;4164781;28;20053;-37
2022/10/05 03:55:38;;;;;;;0.40;0.30;;;;;;;;;;4163902;28;20103;-38
2022/10/05 03:57:41;;;;;;;0.55;0.30;;;;;;;;;;4147983;28;20050;-38
2022/10/05 03:59:55;;;;;;;0.17;0.17;;;;;;;;;;4149942;28;20591;-38
2022/10/05 04:02:00;;;;;;;2.38;0.10;;;;;;;;;;4147526;28;20472;-38
2022/10/05 04:04:04;;;;;;;0.88;0.17;;;;;;;;;;4134233;28;20359;-38
2022/10/05 04:06:34;;;;;;;0.35;0.15;;;;;;;;;;4143036;28;20057;-38
2022/10/05 04:09:00;;;;;;;0.50;0.20;;;;;;;;;;4156386;28;20057;-38
2022/10/05 04:11:07;;;;;;;0.32;0.17;;;;;;;;;;4159928;28;20128;-39
2022/10/05 04:13:15;;;;;;;0.40;0.20;;;;;;;;;;4163731;28;20099;-38
2022/10/05 04:15:22;;;;;;;0.10;0.10;;;;;;;;;;4164029;28;20053;-38
2022/10/05 04:17:36;;;;;;;0.45;0.20;;;;;;;;;;4163526;28;20417;-38
2022/10/05 04:19:43;;;;;;;0.10;0.10;;;;;;;;;;4162677;28;20057;-37
2022/10/05 04:22:08;;;;;;;0.68;0.20;;;;;;;;;;4153180;28;20547;-38
2022/10/05 04:24:15;;;;;;;0.95;0.30;;;;;;;;;;4163338;28;20084;-38
2022/10/05 04:26:51;;;;;;;0.63;0.20;;;;;;;;;;4147250;28;20109;-37
2022/10/05 04:28:54;;;;;;;0.40;0.20;;;;;;;;;;4162317;28;20519;-38
2022/10/05 04:30:56;;;;;;;0.17;0.10;;;;;;;;;;4164698;28;20054;-38
2022/10/05 04:32:58;;;;;;;0.10;0.10;;;;;;;;;;4163428;28;20058;-38
2022/10/05 04:35:16;;;;;;;0.20;0.20;;;;;;;;;;4163334;28;20095;-38
2022/10/05 04:37:29;;;;;;;0.25;0.20;;;;;;;;;;4164084;28;20072;-38
2022/10/05 04:40:05;;;;;;;0.43;0.10;;;;;;;;;;4150840;28;20136;-38
2022/10/05 04:42:12;;;;;;;0.60;0.20;;;;;;;;;;4163783;28;20492;-38
2022/10/05 04:44:39;;;;;;;0.15;0.13;;;;;;;;;;4163306;28;20057;-38
2022/10/05 04:47:02;;;;;;;0.20;0.20;;;;;;;;;;4155253;28;20061;-38
2022/10/05 04:49:41;;;;;;;0.10;0.10;;;;;;;;;;4160985;28;20509;-38
2022/10/05 04:52:29;;;;;;;1.15;0.20;;;;;;;;;;4132176;28;20061;-38
2022/10/05 04:54:57;;;;;;;0.50;0.10;;;;;;;;;;4138329;28;20057;-38
2022/10/05 04:57:07;;;;;;;0.50;0.30;;;;;;;;;;4142725;28;20449;-38
2022/10/05 05:00:00;;;;;;;0.20;0.20;;;;;;;;;;4162795;28;20065;-37
2022/10/05 05:02:02;;;;;;;0.30;0.15;;;;;;;;;;4160362;28;20080;-38
2022/10/05 05:04:18;;;;;;;0.75;0.20;;;;;;;;;;4160398;28;20065;-37
2022/10/05 05:06:27;;;;;;;0.80;0.20;;;;;;;;;;4145227;28;20061;-38
2022/10/05 05:08:55;;;;;;;0.60;0.27;;;;;;;;;;4140673;28;20061;-38
2022/10/05 05:11:20;;;;;;;0.82;0.40;;;;;;;;;;4134131;28;20053;-39
2022/10/05 05:13:43;;;;;;;1.23;0.30;;;;;;;;;;4162377;28;20061;-38
2022/10/05 05:15:57;;;;;;;0.38;0.25;;;;;;;;;;4149384;28;20135;-38
2022/10/05 05:18:01;;;;;;;0.65;0.30;;;;;;;;;;4161839;28;20065;-38
2022/10/05 05:20:22;;;;;;;0.40;0.30;;;;;;;;;;4160518;28;20087;-38
2022/10/05 05:22:28;;;;;;;0.40;0.20;;;;;;;;;;4133252;28;20065;-38
2022/10/05 05:24:53;;;;;;;1.25;0.60;;;;;;;;;;4136575;28;20057;-38
2022/10/05 05:27:16;;;;;;;1.50;0.40;;;;;;;;;;4160429;28;20464;-38
2022/10/05 05:29:40;;;;;;;0.63;0.60;;;;;;;;;;4144404;28;20489;-38
2022/10/05 05:31:49;;;;;;;0.38;0.38;;;;;;;;;;4157803;28;20108;-37
2022/10/05 05:34:30;;;;;;;0.50;0.30;;;;;;;;;;4144039;28;20053;-38
2022/10/05 05:36:53;;;;;;;0.30;0.30;;;;;;;;;;4161688;28;20053;-38
2022/10/05 05:39:07;;;;;;;0.82;0.30;;;;;;;;;;4154982;28;20451;-38
2022/10/05 05:41:11;;;;;;;0.38;0.30;;;;;;;;;;4154290;28;20076;-38
2022/10/05 05:44:04;;;;;;;0.40;0.40;;;;;;;;;;4157226;28;20057;-38
2022/10/05 05:46:35;;;;;;;0.85;0.40;;;;;;;;;;4142544;28;20574;-37
2022/10/05 05:48:42;;;;;;;0.63;0.30;;;;;;;;;;4157151;28;20572;-38
2022/10/05 05:50:57;;;;;;;0.40;0.30;;;;;;;;;;4141613;28;20056;-38
2022/10/05 05:53:09;;;;;;;0.60;0.30;;;;;;;;;;4156568;28;20087;-39
2022/10/05 05:55:35;;;;;;;0.32;0.22;;;;;;;;;;4157343;28;20057;-37
2022/10/05 05:57:42;;;;;;;0.95;0.45;;;;;;;;;;4160816;28;20188;-38
2022/10/05 05:59:52;;;;;;;0.35;0.35;;;;;;;;;;4158189;28;20056;-38
2022/10/05 06:02:10;;;;;;;0.60;0.50;;;;;;;;;;4156219;28;20625;-38
2022/10/05 06:04:15;;;;;;;1.58;0.40;;;;;;;;;;4135935;28;20104;-38
2022/10/05 06:06:40;;;;;;;0.85;0.45;;;;;;;;;;4155488;28;20270;-39
2022/10/05 06:08:57;;;;;;;0.98;0.30;;;;;;;;;;4154858;28;20579;-38
2022/10/05 06:11:18;;;;;;;0.80;0.47;;;;;;;;;;4148877;28;20059;-38
2022/10/05 06:13:27;;;;;;;0.95;0.70;;;;;;;;;;4138154;28;20049;-39
2022/10/05 06:15:39;;;;;;;0.40;0.35;;;;;;;;;;4138008;28;20536;-38
2022/10/05 06:17:44;;;;;;;1.50;0.50;;;;;;;;;;4133800;28;20053;-38
2022/10/05 06:19:47;;;;;;;0.80;0.55;;;;;;;;;;4130317;28;20096;-39
2022/10/05 06:22:06;;;;;;;1.23;0.63;;;;;;;;;;4148959;28;20147;-38
2022/10/05 06:24:37;;;;;;;0.63;0.47;;;;;;;;;;4127702;28;20572;-37
2022/10/05 06:27:02;;;;;;;1.75;0.70;;;;;;;;;;4141435;28;20065;-38
2022/10/05 06:29:08;;;;;;;2.22;0.70;;;;;;;;;;4153902;28;20501;-39
2022/10/05 06:31:10;;;;;;;1.48;0.63;;;;;;;;;;4152923;28;20053;-39
2022/10/05 06:33:37;;;;;;;1.77;0.88;;;;;;;;;;4149672;28;20068;-38
2022/10/05 06:35:57;;;;;;;1.02;0.60;;;;;;;;;;4150414;28;21063;-38
2022/10/05 06:38:35;;;;;;;1.23;0.57;;;;;;;;;;4145584;28;20049;-37
2022/10/05 06:40:46;;;;;;;1.27;0.63;;;;;;;;;;4131119;28;20058;-38
2022/10/05 06:42:58;;;;;;;1.65;0.90;;;;;;;;;;4158142;28;20069;-38
2022/10/05 06:45:18;;;;;;;1.48;0.80;;;;;;;;;;4139917;28;20119;-38
2022/10/05 06:47:38;;;;;;;3.83;0.80;;;;;;;;;;4111184;28;20074;-40
2022/10/05 06:50:00;;;;;;;2.80;0.80;;;;;;;;;;4119205;28;20058;-42
2022/10/05 06:52:41;;;;;;;3.00;0.90;;;;;;;;;;4142927;28;21026;-42
2022/10/05 06:55:03;;;;;;;1.13;0.63;;;;;;;;;;4134399;28;20057;-41
2022/10/05 06:57:14;;;;;;;1.63;0.80;;;;;;;;;;4136098;28;20115;-40
2022/10/05 06:59:31;;;;;;;1.77;0.90;;;;;;;;;;4118116;28;20057;-42
2022/10/05 07:01:44;;;;;;;1.35;0.63;;;;;;;;;;4131957;28;20596;-40
2022/10/05 07:04:03;;;;;;;1.58;0.90;;;;;;;;;;4112209;28;20057;-41
2022/10/05 07:06:32;;;;;;;2.15;0.90;;;;;;;;;;4139620;28;20081;-40
2022/10/05 07:08:52;;;;;;;2.42;1.00;;;;;;;;;;4120995;28;20131;-41
2022/10/05 07:11:18;;;;;;;1.58;1.00;;;;;;;;;;4139372;28;20415;-40
2022/10/05 07:13:31;;;;;;;2.33;1.00;;;;;;;;;;4131200;28;21953;-40
2022/10/05 07:16:02;;;;;;;1.95;1.00;;;;;;;;;;4137291;28;20115;-41
2022/10/05 07:18:26;;;;;;;2.40;1.10;;;;;;;;;;4115504;28;20057;-41
2022/10/05 07:20:52;;;;;;;2.05;1.05;;;;;;;;;;4133755;28;20304;-40
2022/10/05 07:23:13;;;;;;;2.83;1.25;;;;;;;;;;4117004;28;20583;-41
2022/10/05 07:25:19;;;;;;;3.47;1.35;;;;;;;;;;4127273;28;20061;-40
2022/10/05 07:27:23;;;;;;;5.10;1.33;;;;;;;;;;4140741;28;20061;-41
2022/10/05 07:29:36;;;;;;;1.92;1.05;;;;;;;;;;4117377;28;20474;-40
2022/10/05 07:31:57;;;;;;;2.08;1.13;;;;;;;;;;4126951;28;20496;-40
2022/10/05 07:34:05;;;;;;;3.10;1.50;;;;;;;;;;4133203;28;20099;-40
2022/10/05 07:39:18;;;;;;;2.30;1.30;;;;;;;;;;4111401;28;20453;-40
2022/10/05 07:41:46;;;;;;;2.20;1.30;;;;;;;;;;4130529;28;20517;-40
2022/10/05 07:44:11;;;;;;;4.63;1.42;;;;;;;;;;4132906;28;20546;-40
2022/10/05 07:46:21;;;;;;;5.30;1.42;;;;;;;;;;4122801;28;20426;-41
2022/10/05 07:49:02;;;;;;;6.15;1.45;;;;;;;;;;4125448;28;20065;-42
2022/10/05 07:51:10;;;;;;;2.92;1.23;;;;;;;;;;4121049;28;20540;-40
2022/10/05 07:53:18;;;;;;;4.85;1.27;;;;;;;;;;4124108;28;20171;-41
2022/10/05 07:55:25;;;;;;;1.95;1.08;;;;;;;;;;4121910;28;20766;-38
2022/10/05 07:57:31;;;;;;;4.65;1.58;;;;;;;;;;4116438;28;20120;-38
2022/10/05 08:00:00;;;;;;;3.40;1.25;;;;;;;;;;4130021;28;20156;-39
2022/10/05 08:02:28;;;;;;;3.90;1.23;;;;;;;;;;4151674;28;20107;-37
2022/10/05 08:04:35;;;;;;;4.43;1.40;;;;;;;;;;4134593;28;20171;-39
2022/10/05 08:06:37;;;;;;;3.50;1.20;;;;;;;;;;4137121;28;20057;-37
2022/10/05 08:08:44;;;;;;;2.67;1.48;;;;;;;;;;4138399;28;20202;-38
2022/10/05 08:11:06;;;;;;;2.33;1.23;;;;;;;;;;4134702;28;20050;-39
2022/10/05 08:14:00;;;;;;;4.97;1.42;;;;;;;;;;4129119;28;20087;-38
2022/10/05 08:16:04;;;;;;;2.00;0.95;;;;;;;;;;4131226;28;20504;-39
2022/10/05 08:18:43;;;;;;;2.83;0.90;;;;;;;;;;4143306;28;20084;-37
2022/10/05 08:20:53;;;;;;;3.58;0.73;;;;;;;;;;4129512;28;22619;-37
2022/10/05 08:22:59;;;;;;;;;;;;;;;;;;4137494;28;20075;-38
2022/10/05 08:25:03;;;;;;;2.78;1.10;;;;;;;;;;4139797;28;19925;-44
2022/10/05 08:27:23;;;;;;;2.80;1.13;;;;;;;;;;4150229;28;21919;-38
2022/10/05 08:29:28;;;;;;;3.97;1.42;;;;;;;;;;4143253;28;20935;-37
2022/10/05 08:31:34;;;;;;;5.00;0.98;;;;;;;;;;4132335;28;20525;-38
2022/10/05 08:33:57;;;;;;;1.30;0.95;;;;;;;;;;4139185;28;20053;-38
2022/10/05 08:36:06;;;;;;;1.33;0.77;;;;;;;;;;4142514;28;20190;-39
2022/10/05 08:38:12;;;;;;;2.15;0.90;;;;;;;;;;4141961;28;20340;-37
2022/10/05 08:41:00;;;;;;;1.27;0.80;;;;;;;;;;4140352;28;20481;-38
2022/10/05 08:43:25;;;;;;;1.92;1.00;;;;;;;;;;4136546;28;20061;-37
2022/10/05 08:45:42;;;;;;;1.25;0.70;;;;;;;;;;4133385;28;20083;-38
2022/10/05 08:48:12;;;;;;;2.33;0.80;;;;;;;;;;4135645;28;20468;-40
2022/10/05 08:50:45;;;;;;;2.70;1.15;;;;;;;;;;4129322;28;20384;-36
2022/10/05 08:53:05;;;;;;;3.60;0.93;;;;;;;;;;4125412;28;20128;-38
2022/10/05 08:55:28;;;;;;;2.55;1.02;;;;;;;;;;4132619;28;20119;-37
2022/10/05 08:57:52;;;;;;;3.28;0.70;;;;;;;;;;4122697;28;20062;-38
2022/10/05 08:59:59;;;;;;;1.67;0.50;;;;;;;;;;4132532;28;20045;-37
2022/10/05 09:02:44;;;;;;;1.42;0.70;;;;;;;;;;4126138;28;20104;-38
2022/10/05 09:05:02;;;;;;;0.57;0.40;;;;;;;;;;4126365;28;20572;-38
2022/10/05 09:07:27;;;;;;;1.65;0.60;;;;;;;;;;4121623;28;20068;-38
2022/10/05 09:09:54;;;;;;;2.67;0.98;;;;;;;;;;4128120;28;20061;-38
2022/10/05 09:12:41;;;;;;;2.20;0.52;;;;;;;;;;4126712;28;20139;-38
2022/10/05 09:15:25;;;;;;;1.33;0.60;;;;;;;;;;4135129;28;20057;-37
2022/10/05 09:17:47;;;;;;;1.15;0.70;;;;;;;;;;4126694;28;20119;-38
2022/10/05 09:20:13;;;;;;;1.42;0.88;;;;;;;;;;4130757;28;20073;-38
2022/10/05 09:22:34;;;;;;;4.28;0.65;;;;;;;;;;4134945;28;21064;-39
2022/10/05 09:25:20;;;;;;;1.45;0.65;;;;;;;;;;4132094;28;20096;-39
2022/10/05 09:27:36;;;;;;;0.93;0.52;;;;;;;;;;4138135;28;20049;-39
2022/10/05 09:30:02;;;;;;;1.92;0.60;;;;;;;;;;4129482;28;20061;-37
2022/10/05 09:32:26;;;;;;;1.10;0.60;;;;;;;;;;4133801;28;20149;-38
2022/10/05 09:34:44;;;;;;;0.93;0.50;;;;;;;;;;4120417;28;20061;-40
2022/10/05 09:37:13;;;;;;;3.35;0.65;;;;;;;;;;4106462;28;20134;-39
2022/10/05 09:39:29;;;;;;;1.50;0.57;;;;;;;;;;4117323;28;20159;-39
2022/10/05 09:42:01;;;;;;;1.00;0.60;;;;;;;;;;4130630;28;20083;-39
2022/10/05 09:44:20;;;;;;;0.95;0.60;;;;;;;;;;4138468;28;21006;-38
2022/10/05 09:46:40;;;;;;;2.45;0.50;;;;;;;;;;4139988;28;21595;-38
2022/10/05 09:48:57;;;;;;;2.63;0.65;;;;;;;;;;4143680;28;20163;-37
2022/10/05 09:51:22;;;;;;;1.77;0.68;;;;;;;;;;4142527;28;20470;-38
2022/10/05 09:53:54;;;;;;;1.52;0.60;;;;;;;;;;4144683;28;20049;-37
2022/10/05 09:56:34;;;;;;;1.15;0.50;;;;;;;;;;4140475;28;20061;-38
2022/10/05 09:59:06;;;;;;;2.30;0.40;;;;;;;;;;4146624;28;20053;-39
2022/10/05 10:01:44;;;;;;;3.78;1.05;;;;;;;;;;4145895;28;20056;-38
2022/10/05 10:04:11;;;;;;;4.10;0.60;;;;;;;;;;4136766;28;20727;-39
2022/10/05 10:06:54;;;;;;;0.88;0.60;;;;;;;;;;4145505;28;20080;-37
2022/10/05 10:09:06;;;;;;;1.77;0.57;;;;;;;;;;4144984;28;20099;-39
2022/10/05 10:11:22;;;;;;;1.63;1.02;;;;;;;;;;4146437;28;20384;-38
2022/10/05 10:13:45;;;;;;;0.70;0.52;;;;;;;;;;4149160;28;20053;-38
2022/10/05 10:16:03;;;;;;;1.17;0.70;;;;;;;;;;4149658;28;20054;-37
2022/10/05 10:18:33;;;;;;;0.45;0.45;;;;;;;;;;4145139;28;20053;-37
2022/10/05 10:20:55;;;;;;;1.25;0.98;;;;;;;;;;4137654;28;20186;-38
2022/10/05 10:23:00;;;;;;;0.70;0.60;;;;;;;;;;4142629;28;20182;-36
2022/10/05 10:25:35;;;;;;;0.77;0.55;;;;;;;;;;4135905;28;20550;-39
2022/10/05 10:28:14;;;;;;;0.85;0.60;;;;;;;;;;4138391;28;20111;-36
2022/10/05 10:30:43;;;;;;;1.33;0.57;;;;;;;;;;4136809;28;20136;-39
2022/10/05 10:33:22;;;;;;;0.98;0.80;;;;;;;;;;4135386;28;20103;-38
2022/10/05 10:35:34;;;;;;;3.22;0.32;;;;;;;;;;4126862;28;20102;-39
2022/10/05 10:37:57;;;;;;;0.85;0.60;;;;;;;;;;4134663;28;21066;-38
2022/10/05 10:40:33;;;;;;;1.40;0.50;;;;;;;;;;4130114;28;20160;-38
2022/10/05 10:42:58;;;;;;;1.15;0.50;;;;;;;;;;4130852;28;20319;-37
2022/10/05 10:45:18;;;;;;;3.83;0.60;;;;;;;;;;4137385;28;20057;-37
2022/10/05 10:47:39;;;;;;;1.55;0.57;;;;;;;;;;4141971;28;20813;-37
2022/10/05 10:50:18;;;;;;;1.27;0.55;;;;;;;;;;4148823;28;20469;-35
2022/10/05 10:52:47;;;;;;;2.92;0.50;;;;;;;;;;4145340;28;20157;-37
2022/10/05 10:55:16;;;;;;;5.03;0.50;;;;;;;;;;4137484;28;21585;-37
2022/10/05 10:57:35;;;;;;;1.30;0.45;;;;;;;;;;4137765;28;21091;-37
2022/10/05 10:59:42;;;;;;;1.42;0.55;;;;;;;;;;4137790;28;20111;-38
2022/10/05 11:02:12;;;;;;;2.00;0.47;;;;;;;;;;4140872;28;20107;-36
2022/10/05 11:04:36;;;;;;;0.82;0.55;;;;;;;;;;4159413;28;20068;-37
2022/10/05 11:06:56;;;;;;;1.95;0.73;;;;;;;;;;4148948;28;20057;-37
2022/10/05 11:09:22;;;;;;;0.93;0.43;;;;;;;;;;4146415;28;20290;-37
2022/10/05 11:11:45;;;;;;;1.35;0.73;;;;;;;;;;4140108;28;20057;-36
2022/10/05 11:13:52;;;;;;;1.63;0.50;;;;;;;;;;4144835;28;20057;-36
2022/10/05 11:16:15;;;;;;;0.95;0.40;;;;;;;;;;4151232;28;20548;-36
2022/10/05 11:18:19;;;;;;;1.98;0.50;;;;;;;;;;4143254;28;20119;-36
2022/10/05 11:20:48;;;;;;;1.92;0.50;;;;;;;;;;4144407;28;20069;-37
2022/10/05 11:22:57;;;;;;;0.60;0.50;;;;;;;;;;4150503;28;21939;-37
2022/10/05 11:25:26;;;;;;;1.27;0.65;;;;;;;;;;4147861;28;20408;-39
2022/10/05 11:27:46;;;;;;;0.43;0.40;;;;;;;;;;4151023;28;20118;-37
2022/10/05 11:30:02;;;;;;;3.15;0.47;;;;;;;;;;4151920;28;20132;-36
2022/10/05 11:32:42;;;;;;;0.82;0.50;;;;;;;;;;4147488;28;20053;-36
2022/10/05 11:35:23;;;;;;;1.23;0.55;;;;;;;;;;4146034;28;20053;-35
2022/10/05 11:37:45;;;;;;;1.85;0.40;;;;;;;;;;4144018;28;20173;-36
2022/10/05 11:40:25;;;;;;;0.95;0.30;;;;;;;;;;4149472;28;20343;-36
2022/10/05 11:42:51;;;;;;;1.13;0.40;;;;;;;;;;4146512;28;20531;-36
2022/10/05 11:45:13;;;;;;;0.82;0.40;;;;;;;;;;4145468;28;20077;-36
2022/10/05 11:47:20;;;;;;;0.38;0.35;;;;;;;;;;4128533;28;20143;-38
2022/10/05 11:49:39;;;;;;;0.25;0.25;;;;;;;;;;4150703;28;20057;-36
2022/10/05 11:51:52;;;;;;;0.60;0.40;;;;;;;;;;4144060;28;20492;-38
2022/10/05 11:53:56;;;;;;;0.77;0.40;;;;;;;;;;4147258;28;20475;-37
2022/10/05 11:56:03;;;;;;;1.73;0.30;;;;;;;;;;4144416;28;20087;-41
2022/10/05 11:58:22;;;;;;;0.55;0.47;;;;;;;;;;4141677;28;20056;-38
2022/10/05 12:00:53;;;;;;;0.32;0.32;;;;;;;;;;4139367;28;20045;-39
2022/10/05 12:03:15;;;;;;;0.50;0.40;;;;;;;;;;4135198;28;20256;-37
2022/10/05 12:05:24;;;;;;;1.77;0.43;;;;;;;;;;4139651;28;20672;-38
2022/10/05 12:07:33;;;;;;;1.00;0.47;;;;;;;;;;4146451;28;20068;-38
2022/10/05 12:10:15;;;;;;;1.48;0.40;;;;;;;;;;4129727;28;20053;-36
2022/10/05 12:12:26;;;;;;;0.80;0.30;;;;;;;;;;4138901;28;20053;-38
2022/10/05 12:14:33;;;;;;;1.25;0.40;;;;;;;;;;4141736;28;20195;-37
2022/10/05 12:16:48;;;;;;;1.63;0.40;;;;;;;;;;4144596;28;20107;-36
2022/10/05 12:19:27;;;;;;;1.35;0.50;;;;;;;;;;4142785;28;20736;-35
2022/10/05 12:21:35;;;;;;;0.40;0.32;;;;;;;;;;4140630;28;20054;-36
2022/10/05 12:23:51;;;;;;;0.90;0.50;;;;;;;;;;4125024;28;20058;-36
2022/10/05 12:26:06;;;;;;;1.58;0.30;;;;;;;;;;4142723;28;20501;-37
2022/10/05 12:28:14;;;;;;;5.55;0.30;;;;;;;;;;4144315;28;20446;-36
2022/10/05 12:30:34;;;;;;;0.80;0.30;;;;;;;;;;4147371;28;20135;-36
2022/10/05 12:32:46;;;;;;;0.55;0.40;;;;;;;;;;4118336;28;20132;-37
2022/10/05 12:35:25;;;;;;;2.35;0.40;;;;;;;;;;4141251;28;20053;-37
2022/10/05 12:37:54;;;;;;;0.57;0.32;;;;;;;;;;4137973;28;20061;-37
2022/10/05 12:40:11;;;;;;;0.65;0.20;;;;;;;;;;4131250;28;21491;-37
2022/10/05 12:42:26;;;;;;;2.92;0.40;;;;;;;;;;4128928;28;20053;-38
2022/10/05 12:44:38;;;;;;;2.17;0.38;;;;;;;;;;4136064;28;20136;-36
2022/10/05 12:46:50;;;;;;;1.60;0.45;;;;;;;;;;4138157;28;20098;-35
2022/10/05 12:49:09;;;;;;;0.70;0.40;;;;;;;;;;4136600;28;20073;-35
2022/10/05 12:51:22;;;;;;;0.85;0.40;;;;;;;;;;4136640;28;20112;-35
2022/10/05 12:53:47;;;;;;;0.40;0.30;;;;;;;;;;4143763;28;20338;-35
2022/10/05 12:55:52;;;;;;;2.50;0.40;;;;;;;;;;4140847;28;20068;-37
2022/10/05 12:58:08;;;;;;;2.38;0.63;;;;;;;;;;4130417;28;20710;-37
2022/10/05 13:00:16;;;;;;;1.00;0.38;;;;;;;;;;4129299;28;20182;-38
2022/10/05 13:02:27;;;;;;;0.70;0.25;;;;;;;;;;4140621;28;20119;-36
2022/10/05 13:04:39;;;;;;;0.30;0.30;;;;;;;;;;4136679;28;20126;-45
2022/10/05 13:07:05;;;;;;;0.70;0.40;;;;;;;;;;4139748;28;20112;-37
2022/10/05 13:09:25;;;;;;;1.25;0.40;;;;;;;;;;4137187;28;20061;-35
2022/10/05 13:11:41;;;;;;;;;;;;;;;;;;4139295;28;20207;-37
2022/10/05 13:14:16;;;;;;;0.30;0.30;;;;;;;;;;4140274;28;20006;-36
2022/10/05 13:16:41;;;;;;;0.68;0.40;;;;;;;;;;4144991;28;20066;-36
2022/10/05 13:19:13;;;;;;;0.55;0.40;;;;;;;;;;4140872;28;20057;-38
2022/10/05 13:21:24;;;;;;;1.95;0.30;;;;;;;;;;4142983;28;20472;-36
2022/10/05 13:23:25;;;;;;;0.50;0.40;;;;;;;;;;4140836;28;20131;-35
2022/10/05 13:25:33;;;;;;;0.30;0.30;;;;;;;;;;4149598;28;20099;-37
2022/10/05 13:27:40;;;;;;;0.95;0.38;;;;;;;;;;4145634;28;20253;-35
2022/10/05 13:30:09;;;;;;;0.60;0.30;;;;;;;;;;4141816;28;20053;-36
2022/10/05 13:32:17;;;;;;;2.47;0.45;;;;;;;;;;4142671;28;20057;-38
2022/10/05 13:34:42;;;;;;;0.80;0.30;;;;;;;;;;4142292;28;20103;-37
2022/10/05 13:37:02;;;;;;;0.65;0.30;;;;;;;;;;4147099;28;20057;-37
2022/10/05 13:39:58;;;;;;;0.90;0.30;;;;;;;;;;4126824;28;20045;-38
2022/10/05 13:42:12;;;;;;;0.85;0.40;;;;;;;;;;4137537;28;20111;-39
2022/10/05 13:44:52;;;;;;;0.75;0.35;;;;;;;;;;4140681;28;20061;-36
2022/10/05 13:47:00;;;;;;;3.67;0.52;;;;;;;;;;4135591;28;20057;-37
2022/10/05 13:49:28;;;;;;;0.77;0.38;;;;;;;;;;4145289;28;20160;-36
2022/10/05 13:51:37;;;;;;;0.75;0.45;;;;;;;;;;4146133;28;20478;-38
2022/10/05 13:53:42;;;;;;;0.90;0.50;;;;;;;;;;4144378;28;20123;-37
2022/10/05 13:55:59;;;;;;;2.58;0.40;;;;;;;;;;4130586;28;20092;-38